Time;durP1;ratioP1;P1;durP2;ratioP2;P2;SDS_P1;SDS_P2;PMS_P1;PMS_P2;Temp;Humidity;BMP_temperature;BMP_pressure;BME280_temperature;BME280_humidity;BME280_pressure;Samples;Min_cycle;Max_cycle;Signal;HPM_P1;HPM_P2
2021/08/17 00:00:53;;;;;;;4.25;1.85;;;;;;;14.16;100.00;96928.94;5038915;28;20552;-66
2021/08/17 00:03:18;;;;;;;3.97;1.88;;;;;;;14.16;100.00;96923.41;5034111;28;20098;-67
2021/08/17 00:05:44;;;;;;;5.78;2.55;;;;;;;14.16;100.00;96934.44;5038614;28;20128;-65
2021/08/17 00:08:10;;;;;;;7.68;3.95;;;;;;;14.31;100.00;96925.09;5034293;28;20065;-66
2021/08/17 00:10:36;;;;;;;7.03;3.30;;;;;;;14.26;100.00;96935.66;5038347;28;20055;-66
2021/08/17 00:13:02;;;;;;;6.03;3.30;;;;;;;14.25;100.00;96931.34;5038915;28;20449;-67
2021/08/17 00:15:29;;;;;;;7.00;3.60;;;;;;;14.18;100.00;96947.81;5034681;28;20452;-67
2021/08/17 00:17:54;;;;;;;8.32;2.63;;;;;;;14.25;100.00;96943.13;5029120;28;20090;-66
2021/08/17 00:20:20;;;;;;;5.63;2.65;;;;;;;14.30;100.00;96950.25;5023238;28;20531;-67
2021/08/17 00:22:45;;;;;;;5.78;3.17;;;;;;;14.50;98.39;96948.00;5039459;28;20079;-67
2021/08/17 00:25:11;;;;;;;6.95;3.20;;;;;;;14.48;98.85;96945.63;5027721;28;20456;-65
2021/08/17 00:27:37;;;;;;;7.00;2.75;;;;;;;14.37;100.00;96952.25;5035007;28;20044;-66
2021/08/17 00:30:05;;;;;;;7.13;3.20;;;;;;;14.30;100.00;96940.03;5038234;28;20041;-62
2021/08/17 00:32:31;;;;;;;7.53;2.67;;;;;;;14.29;100.00;96954.19;5056298;28;20044;-65
2021/08/17 00:34:56;;;;;;;5.90;3.08;;;;;;;14.12;100.00;96952.91;5041399;28;20094;-65
2021/08/17 00:37:21;;;;;;;7.00;2.92;;;;;;;14.30;100.00;96939.25;5032663;28;20601;-66
2021/08/17 00:39:47;;;;;;;7.97;3.10;;;;;;;14.33;99.78;96941.22;5039205;28;20049;-65
2021/08/17 00:42:13;;;;;;;5.97;3.22;;;;;;;14.32;99.22;96945.16;5030536;28;20390;-66
2021/08/17 00:44:38;;;;;;;6.78;4.03;;;;;;;14.10;100.00;96953.28;5037065;28;20582;-65
2021/08/17 00:47:04;;;;;;;6.93;4.15;;;;;;;13.88;100.00;96949.59;5035476;28;20044;-63
2021/08/17 00:49:31;;;;;;;10.38;3.67;;;;;;;13.94;100.00;96944.53;5039579;28;20758;-65
2021/08/17 00:51:59;;;;;;;10.35;4.80;;;;;;;13.91;100.00;96948.81;5037307;28;20055;-66
2021/08/17 00:54:25;;;;;;;12.63;4.85;;;;;;;13.82;100.00;96947.59;5032442;28;20041;-67
2021/08/17 00:56:54;;;;;;;8.45;4.30;;;;;;;13.79;100.00;96951.09;5037600;28;20119;-67
2021/08/17 00:59:20;;;;;;;12.98;4.63;;;;;;;13.72;100.00;96960.06;5012739;28;20052;-67
2021/08/17 01:01:45;;;;;;;16.75;6.40;;;;;;;13.57;100.00;96968.22;5039078;28;20045;-67
2021/08/17 01:04:11;;;;;;;14.10;5.85;;;;;;;13.50;100.00;96981.91;5032171;28;20132;-67
2021/08/17 01:06:38;;;;;;;15.07;6.10;;;;;;;13.40;100.00;96985.38;5019422;28;20363;-67
2021/08/17 01:09:12;;;;;;;14.55;6.55;;;;;;;13.60;100.00;96976.91;5033730;28;20037;-65
2021/08/17 01:11:45;;;;;;;16.35;6.63;;;;;;;13.71;100.00;96969.50;5039654;28;20037;-67
2021/08/17 01:14:15;;;;;;;15.07;6.72;;;;;;;13.80;100.00;96978.25;5033763;28;20073;-66
2021/08/17 01:16:43;;;;;;;15.40;7.78;;;;;;;13.84;100.00;96983.78;5038910;28;20045;-66
2021/08/17 01:19:10;;;;;;;16.75;6.97;;;;;;;13.92;100.00;96982.66;5032269;28;20048;-63
2021/08/17 01:21:35;;;;;;;15.70;7.60;;;;;;;13.86;100.00;96987.72;5037017;28;20056;-64
2021/08/17 01:24:01;;;;;;;15.40;7.32;;;;;;;13.84;100.00;96983.78;5035303;28;20045;-66
2021/08/17 01:26:27;;;;;;;14.98;7.43;;;;;;;13.74;100.00;96993.53;5033617;28;20045;-65
2021/08/17 01:28:52;;;;;;;17.48;9.38;;;;;;;13.70;100.00;96989.94;5041748;28;20040;-63
2021/08/17 01:31:17;;;;;;;18.63;8.55;;;;;;;13.48;100.00;96995.25;5036776;28;20041;-65
2021/08/17 01:33:43;;;;;;;16.42;7.90;;;;;;;13.60;100.00;96993.41;5040581;28;20032;-65
2021/08/17 01:36:08;;;;;;;17.90;8.57;;;;;;;13.50;100.00;96992.13;5037377;28;20567;-65
2021/08/17 01:38:45;;;;;;;17.92;8.80;;;;;;;13.45;100.00;96998.78;5042207;28;20602;-68
2021/08/17 01:41:10;;;;;;;19.67;9.80;;;;;;;13.45;100.00;96998.78;5035016;28;20375;-62
2021/08/17 01:43:36;;;;;;;19.88;9.25;;;;;;;13.39;100.00;97001.06;5042030;28;20072;-68
2021/08/17 01:46:03;;;;;;;20.73;9.45;;;;;;;13.32;100.00;97003.72;5040381;28;20087;-61
2021/08/17 01:48:30;;;;;;;18.85;8.85;;;;;;;13.40;100.00;97010.13;5004773;28;20099;-64
2021/08/17 01:50:57;;;;;;;23.77;10.20;;;;;;;13.30;100.00;97014.28;5041972;28;20048;-64
2021/08/17 01:53:23;;;;;;;21.55;10.55;;;;;;;13.18;100.00;97012.63;5030430;28;20049;-65
2021/08/17 01:55:50;;;;;;;21.20;10.13;;;;;;;13.22;100.00;97012.66;5042065;28;20045;-64
2021/08/17 01:58:16;;;;;;;24.13;10.65;;;;;;;13.23;100.00;97011.47;5035852;28;20127;-65
2021/08/17 02:00:44;;;;;;;22.77;9.70;;;;;;;13.39;100.00;97012.06;5038543;28;20132;-63
2021/08/17 02:03:09;;;;;;;26.00;10.40;;;;;;;13.47;100.00;97009.38;5034907;28;20552;-63
2021/08/17 02:05:34;;;;;;;22.98;9.95;;;;;;;13.47;100.00;97012.13;5041984;28;20040;-65
2021/08/17 02:08:02;;;;;;;22.70;11.23;;;;;;;13.51;100.00;97012.97;5041174;28;20044;-65
2021/08/17 02:10:28;;;;;;;23.65;10.65;;;;;;;13.38;100.00;97013.25;5038619;28;20044;-66
2021/08/17 02:12:53;;;;;;;26.05;10.68;;;;;;;13.52;100.00;97018.13;5033431;28;20037;-66
2021/08/17 02:15:19;;;;;;;20.88;10.70;;;;;;;13.66;100.00;97025.69;5046012;28;20041;-66
2021/08/17 02:17:44;;;;;;;21.38;10.00;;;;;;;13.62;100.00;97022.13;5039727;28;20068;-66
2021/08/17 02:20:10;;;;;;;23.17;10.68;;;;;;;13.46;100.00;97025.09;5039644;28;20490;-64
2021/08/17 02:22:36;;;;;;;21.10;9.45;;;;;;;13.30;100.00;97024.53;5040335;28;20096;-64
2021/08/17 02:25:01;;;;;;;23.60;10.90;;;;;;;13.27;100.00;97023.31;5038179;28;20065;-65
2021/08/17 02:27:32;;;;;;;21.13;11.10;;;;;;;13.21;100.00;97024.81;5024972;28;20509;-65
2021/08/17 02:29:58;;;;;;;20.27;9.10;;;;;;;13.19;100.00;97027.16;5041142;28;20048;-65
2021/08/17 02:32:23;;;;;;;22.75;10.23;;;;;;;13.29;100.00;97036.69;5027320;28;20623;-64
2021/08/17 02:34:48;;;;;;;19.83;8.98;;;;;;;13.46;100.00;97038.09;5039602;28;20080;-64
2021/08/17 02:37:14;;;;;;;22.20;9.00;;;;;;;13.58;100.00;97035.06;5033215;28;20032;-65
2021/08/17 02:39:39;;;;;;;22.52;10.43;;;;;;;13.48;100.00;97036.53;5032554;28;20037;-66
2021/08/17 02:42:05;;;;;;;25.80;11.18;;;;;;;13.22;100.00;97036.59;5028204;28;20045;-63
2021/08/17 02:44:31;;;;;;;23.15;10.13;;;;;;;13.05;100.00;97044.28;5047590;28;20041;-65
2021/08/17 02:46:56;;;;;;;26.70;10.68;;;;;;;12.84;100.00;97041.25;5036684;28;20052;-65
2021/08/17 02:49:21;;;;;;;26.10;10.57;;;;;;;12.69;100.00;97041.06;5033906;28;20060;-66
2021/08/17 02:51:47;;;;;;;27.27;11.55;;;;;;;12.72;100.00;97047.78;5040907;28;20048;-65
2021/08/17 02:54:12;;;;;;;24.92;11.07;;;;;;;12.83;100.00;97054.22;5032973;28;20052;-65
2021/08/17 02:56:38;;;;;;;23.90;11.15;;;;;;;12.70;100.00;97050.91;5041599;28;20078;-65
2021/08/17 02:59:03;;;;;;;25.60;10.93;;;;;;;12.70;100.00;97047.38;5035484;28;20059;-63
2021/08/17 03:01:29;;;;;;;22.10;11.38;;;;;;;12.75;100.00;97053.34;5029401;28;20052;-65
2021/08/17 03:03:54;;;;;;;28.50;12.57;;;;;;;12.72;100.00;97047.78;5040807;28;20040;-65
2021/08/17 03:06:20;;;;;;;25.42;11.07;;;;;;;12.63;100.00;97053.56;5032309;28;20496;-64
2021/08/17 03:08:45;;;;;;;23.88;10.50;;;;;;;12.60;100.00;97046.03;5034134;28;20057;-64
2021/08/17 03:11:10;;;;;;;26.80;11.02;;;;;;;12.56;100.00;97047.97;5025399;28;20045;-64
2021/08/17 03:13:36;;;;;;;23.73;11.35;;;;;;;12.48;100.00;97060.00;5035001;28;20041;-65
2021/08/17 03:16:01;;;;;;;25.30;10.82;;;;;;;12.60;100.00;97048.78;5028285;28;20045;-64
2021/08/17 03:18:27;;;;;;;22.98;10.43;;;;;;;12.82;100.00;97047.94;5034501;28;20044;-65
2021/08/17 03:20:53;;;;;;;23.88;9.98;;;;;;;13.03;100.00;97056.81;5029667;28;20052;-64
2021/08/17 03:23:19;;;;;;;22.77;10.32;;;;;;;13.13;100.00;97059.69;5033984;28;20041;-66
2021/08/17 03:25:45;;;;;;;22.77;10.43;;;;;;;13.18;100.00;97048.38;5031016;28;20051;-66
2021/08/17 03:28:10;;;;;;;21.38;9.65;;;;;;;13.15;100.00;97060.13;5020450;28;20041;-63
2021/08/17 03:30:36;;;;;;;25.67;10.95;;;;;;;13.27;100.00;97055.53;5033481;28;20065;-65
2021/08/17 03:33:04;;;;;;;22.58;10.10;;;;;;;13.34;100.00;97055.63;5032737;28;20121;-61
2021/08/17 03:35:29;;;;;;;23.85;11.13;;;;;;;13.29;100.00;97056.75;5038528;28;20040;-64
2021/08/17 03:37:55;;;;;;;20.58;10.25;;;;;;;13.35;100.00;97057.22;5040378;28;20045;-65
2021/08/17 03:40:22;;;;;;;23.00;10.07;;;;;;;13.38;100.00;97059.22;5023984;28;20076;-65
2021/08/17 03:42:48;;;;;;;21.15;9.45;;;;;;;13.39;100.00;97053.34;5028542;28;20041;-64
2021/08/17 03:45:17;;;;;;;23.65;10.30;;;;;;;13.30;100.00;97057.53;5032003;28;20036;-63
2021/08/17 03:47:43;;;;;;;23.70;11.32;;;;;;;13.20;100.00;97061.75;5039475;28;20253;-62
2021/08/17 03:50:12;;;;;;;21.77;9.95;;;;;;;13.25;100.00;97057.84;5030701;28;20045;-62
2021/08/17 03:52:38;;;;;;;22.40;10.37;;;;;;;13.36;100.00;97048.59;5034237;28;20048;-64
2021/08/17 03:55:04;;;;;;;24.35;9.93;;;;;;;13.49;100.00;97051.09;5023534;28;20045;-61
2021/08/17 03:57:30;;;;;;;19.25;9.48;;;;;;;13.55;100.00;97055.06;5029105;28;20069;-64
2021/08/17 03:59:55;;;;;;;20.33;9.43;;;;;;;13.54;100.00;97059.00;5042930;28;20140;-64
2021/08/17 04:02:21;;;;;;;22.35;9.32;;;;;;;13.49;100.00;97056.59;5024422;28;20041;-64
2021/08/17 04:04:48;;;;;;;20.92;8.75;;;;;;;13.55;100.00;97061.38;5035618;28;20396;-64
2021/08/17 04:07:13;;;;;;;18.02;9.43;;;;;;;13.63;100.00;97066.94;5033217;28;20041;-63
2021/08/17 04:09:38;;;;;;;20.35;9.88;;;;;;;13.48;100.00;97064.03;5039461;28;20105;-64
2021/08/17 04:12:04;;;;;;;22.85;10.43;;;;;;;13.33;100.00;97065.84;5030369;28;20090;-61
2021/08/17 04:14:29;;;;;;;21.83;9.68;;;;;;;13.25;100.00;97074.38;5028558;28;20072;-64
2021/08/17 04:16:58;;;;;;;21.55;10.70;;;;;;;13.17;100.00;97066.03;5035621;28;20139;-65
2021/08/17 04:19:25;;;;;;;20.67;9.55;;;;;;;13.05;100.00;97065.47;5024450;28;20504;-66
2021/08/17 04:21:50;;;;;;;22.40;9.60;;;;;;;12.97;100.00;97070.88;5038799;28;20044;-64
2021/08/17 04:24:15;;;;;;;22.85;9.90;;;;;;;13.11;100.00;97075.00;4997069;28;20048;-65
2021/08/17 04:26:41;;;;;;;21.17;10.07;;;;;;;13.20;100.00;97078.25;5043076;28;20410;-65
2021/08/17 04:29:06;;;;;;;21.38;9.27;;;;;;;13.29;100.00;97078.75;5026203;28;20040;-65
2021/08/17 04:31:32;;;;;;;22.23;9.98;;;;;;;13.25;100.00;97071.59;5028653;28;20498;-65
2021/08/17 04:33:57;;;;;;;21.40;10.18;;;;;;;13.36;100.00;97081.63;5034615;28;20084;-66
2021/08/17 04:36:23;;;;;;;20.70;9.25;;;;;;;13.44;100.00;97082.47;5032281;28;20047;-66
2021/08/17 04:38:48;;;;;;;18.65;9.23;;;;;;;13.43;100.00;97091.09;5036572;28;20049;-67
2021/08/17 04:41:14;;;;;;;18.77;9.48;;;;;;;13.39;100.00;97089.09;5030817;28;20040;-65
2021/08/17 04:43:39;;;;;;;24.85;10.57;;;;;;;13.46;100.00;97084.84;5031489;28;20135;-66
2021/08/17 04:46:04;;;;;;;20.95;10.07;;;;;;;13.49;100.00;97086.88;5031360;28;20045;-62
2021/08/17 04:48:30;;;;;;;21.75;10.10;;;;;;;13.39;100.00;97089.09;5028081;28;20048;-64
2021/08/17 04:50:55;;;;;;;21.50;9.63;;;;;;;13.49;100.00;97084.91;5035610;28;20494;-65
2021/08/17 04:53:20;;;;;;;19.77;10.15;;;;;;;13.56;100.00;97092.44;5033167;28;20049;-65
2021/08/17 04:55:46;;;;;;;22.05;9.77;;;;;;;13.60;100.00;97090.53;5018019;28;20037;-65
2021/08/17 04:58:11;;;;;;;21.02;9.48;;;;;;;13.68;99.79;97094.13;5032219;28;20121;-66
2021/08/17 05:00:44;;;;;;;17.42;8.35;;;;;;;13.71;94.54;97096.91;5024225;28;20072;-64
2021/08/17 05:03:09;;;;;;;16.02;7.05;;;;;;;13.70;92.39;97102.81;5046371;28;20049;-65
2021/08/17 05:05:35;;;;;;;17.20;6.50;;;;;;;13.58;93.66;97099.16;5054821;28;20040;-65
2021/08/17 05:08:09;;;;;;;14.30;6.35;;;;;;;13.68;91.67;97094.91;5047055;28;20834;-66
2021/08/17 05:10:35;;;;;;;16.95;6.70;;;;;;;13.65;88.57;97103.94;5038945;28;20064;-65
2021/08/17 05:13:02;;;;;;;15.43;5.78;;;;;;;13.62;89.70;97106.66;5032427;28;20064;-65
2021/08/17 05:15:28;;;;;;;12.02;5.90;;;;;;;13.70;88.84;97111.06;5041825;28;20057;-65
2021/08/17 05:17:54;;;;;;;10.05;5.43;;;;;;;13.74;86.52;97101.69;5045250;28;20084;-65
2021/08/17 05:20:19;;;;;;;11.40;4.80;;;;;;;14.01;85.64;97112.56;5030890;28;20132;-64
2021/08/17 05:22:45;;;;;;;13.00;4.93;;;;;;;14.05;83.14;97109.84;5038939;28;20402;-65
2021/08/17 05:25:11;;;;;;;17.88;4.70;;;;;;;14.20;82.50;97121.78;5028602;28;20517;-66
2021/08/17 05:27:36;;;;;;;10.63;4.45;;;;;;;14.47;79.78;97114.91;5028437;28;20041;-65
2021/08/17 05:30:03;;;;;;;9.32;4.45;;;;;;;15.18;76.80;97124.03;5042290;28;20413;-62
2021/08/17 05:32:28;;;;;;;7.45;3.88;;;;;;;15.59;73.56;97118.31;5026018;28;20036;-64
2021/08/17 05:34:54;;;;;;;9.38;4.22;;;;;;;15.67;75.99;97120.69;5044510;28;20117;-65
2021/08/17 05:37:19;;;;;;;8.48;4.78;;;;;;;15.75;74.59;97113.25;5016304;28;20129;-66
2021/08/17 05:39:44;;;;;;;8.10;3.95;;;;;;;15.71;73.73;97117.16;5043976;28;20053;-66
2021/08/17 05:42:10;;;;;;;7.82;3.20;;;;;;;15.79;75.48;97116.00;5037996;28;20382;-65
2021/08/17 05:44:41;;;;;;;8.20;3.95;;;;;;;16.43;73.23;97118.84;5045140;28;20186;-66
2021/08/17 05:47:07;;;;;;;6.90;3.90;;;;;;;16.91;69.79;97127.94;5036121;28;20048;-66
2021/08/17 05:49:32;;;;;;;7.47;3.90;;;;;;;16.84;70.21;97134.28;5032131;28;20047;-62
2021/08/17 05:51:58;;;;;;;8.80;3.80;;;;;;;16.65;70.38;97134.66;5043187;28;20045;-64
2021/08/17 05:54:23;;;;;;;10.30;4.55;;;;;;;16.38;71.56;97135.06;5027700;28;20480;-63
2021/08/17 05:56:50;;;;;;;8.35;3.33;;;;;;;16.45;73.24;97137.81;5043644;28;20045;-64
2021/08/17 05:59:15;;;;;;;7.40;4.05;;;;;;;16.49;71.33;97140.59;5033943;28;20512;-65
2021/08/17 06:01:41;;;;;;;7.10;3.35;;;;;;;16.40;71.56;97136.25;5043600;28;20045;-67
2021/08/17 06:04:06;;;;;;;8.85;3.97;;;;;;;16.44;71.85;97142.56;5027734;28;20081;-64
2021/08/17 06:06:32;;;;;;;9.90;3.95;;;;;;;16.33;71.60;97150.06;5041369;28;20131;-65
2021/08/17 06:08:57;;;;;;;8.82;3.67;;;;;;;16.35;71.25;97158.75;5032694;28;20048;-63
2021/08/17 06:11:23;;;;;;;7.03;3.03;;;;;;;16.65;70.32;97151.25;5024676;28;20148;-62
2021/08/17 06:13:48;;;;;;;7.13;3.08;;;;;;;16.71;69.80;97146.88;5042518;28;20040;-65
2021/08/17 06:16:14;;;;;;;7.03;3.20;;;;;;;16.76;68.96;97158.38;5036515;28;20124;-65
2021/08/17 06:18:40;;;;;;;8.93;3.10;;;;;;;17.00;65.47;97156.78;5033814;28;20049;-63
2021/08/17 06:21:05;;;;;;;6.45;3.28;;;;;;;17.45;63.77;97161.00;5029320;28;20029;-62
2021/08/17 06:23:31;;;;;;;6.40;3.35;;;;;;;17.75;62.66;97157.72;5036523;28;20063;-66
2021/08/17 06:25:56;;;;;;;10.52;3.10;;;;;;;17.91;62.29;97166.38;5041999;28;20048;-66
2021/08/17 06:28:21;;;;;;;7.45;3.20;;;;;;;18.00;61.91;97165.16;5033254;28;20803;-66
2021/08/17 06:30:47;;;;;;;9.48;3.60;;;;;;;18.17;60.81;97160.69;5040474;28;20039;-64
2021/08/17 06:33:12;;;;;;;6.80;3.17;;;;;;;18.27;60.63;97168.16;5021983;28;20037;-65
2021/08/17 06:35:38;;;;;;;6.32;2.78;;;;;;;18.69;58.41;97160.69;5032458;28;20041;-65
2021/08/17 06:38:03;;;;;;;8.73;3.72;;;;;;;18.61;58.10;97175.84;5036248;28;20517;-61
2021/08/17 06:40:29;;;;;;;5.90;2.90;;;;;;;18.78;57.96;97174.09;5030786;28;20033;-65
2021/08/17 06:42:54;;;;;;;5.65;2.92;;;;;;;18.71;59.08;97175.75;5039846;28;20441;-65
2021/08/17 06:45:20;;;;;;;7.32;3.33;;;;;;;18.60;58.81;97174.25;5017857;28;20045;-65
2021/08/17 06:47:50;;;;;;;10.13;3.47;;;;;;;18.83;58.21;97180.03;5026376;28;20033;-65
2021/08/17 06:50:16;;;;;;;5.03;2.65;;;;;;;18.94;57.80;97173.59;5033921;28;20045;-65
2021/08/17 06:52:43;;;;;;;5.35;2.50;;;;;;;19.37;51.92;97160.06;5038821;28;20386;-65
2021/08/17 06:55:09;;;;;;;4.22;2.13;;;;;;;19.79;50.91;97160.78;5034480;28;20539;-64
2021/08/17 06:57:35;;;;;;;5.47;2.47;;;;;;;20.09;49.10;97175.88;5033165;28;20069;-66
2021/08/17 07:00:00;;;;;;;4.25;2.35;;;;;;;20.59;48.13;97185.50;5034558;28;20521;-64
2021/08/17 07:02:26;;;;;;;6.72;2.10;;;;;;;20.86;47.57;97185.47;5029462;28;20567;-66
2021/08/17 07:04:51;;;;;;;6.95;2.95;;;;;;;20.80;48.01;97182.38;5037217;28;20120;-66
2021/08/17 07:07:16;;;;;;;6.63;2.80;;;;;;;20.71;47.45;97198.06;5022709;28;20069;-64
2021/08/17 07:09:42;;;;;;;6.07;2.65;;;;;;;20.70;49.41;97177.78;5040767;28;20487;-64
2021/08/17 07:12:08;;;;;;;6.32;2.67;;;;;;;22.00;44.45;97178.97;5032934;28;20037;-63
2021/08/17 07:14:34;;;;;;;6.10;2.30;;;;;;;23.53;42.92;97172.13;5035356;28;20044;-67
2021/08/17 07:16:59;;;;;;;4.38;1.98;;;;;;;24.86;37.82;97160.53;5039441;28;20045;-66
2021/08/17 07:19:24;;;;;;;6.63;2.80;;;;;;;22.85;40.89;97167.06;5034613;28;20041;-64
2021/08/17 07:21:51;;;;;;;4.63;2.63;;;;;;;21.37;46.61;97169.47;5039926;28;20441;-67
2021/08/17 07:24:16;;;;;;;8.52;3.25;;;;;;;19.61;52.22;97169.31;5024644;28;20498;-66
2021/08/17 07:26:42;;;;;;;7.25;3.60;;;;;;;18.91;54.35;97169.66;5033103;28;20052;-65
2021/08/17 07:29:07;;;;;;;6.32;3.38;;;;;;;17.97;55.65;97172.31;5025629;28;20517;-64
2021/08/17 07:31:36;;;;;;;7.25;3.33;;;;;;;19.18;53.08;97174.56;5037906;28;20048;-63
2021/08/17 07:34:02;;;;;;;5.53;3.10;;;;;;;19.62;54.84;97175.66;5038759;28;20105;-63
2021/08/17 07:36:29;;;;;;;6.82;3.10;;;;;;;18.69;54.13;97186.47;5024852;28;20041;-65
2021/08/17 07:38:54;;;;;;;8.90;4.40;;;;;;;18.51;55.97;97189.38;5041085;28;20060;-64
2021/08/17 07:41:20;;;;;;;7.30;3.50;;;;;;;20.28;53.39;97179.22;5034114;28;20037;-65
2021/08/17 07:43:45;;;;;;;4.97;2.88;;;;;;;21.52;48.47;97175.56;5040558;28;20144;-65
2021/08/17 07:46:10;;;;;;;6.88;3.60;;;;;;;21.54;48.34;97173.13;5033349;28;20110;-66
2021/08/17 07:48:36;;;;;;;4.57;2.00;;;;;;;22.37;41.97;97179.78;5042702;28;20065;-65
2021/08/17 07:51:01;;;;;;;4.57;2.15;;;;;;;23.33;38.58;97184.22;5049344;28;20072;-64
2021/08/17 07:53:27;;;;;;;4.22;1.83;;;;;;;25.35;33.88;97188.13;5039280;28;20138;-65
2021/08/17 07:55:52;;;;;;;3.83;1.73;;;;;;;25.75;33.86;97184.69;5036350;28;20040;-65
2021/08/17 07:58:17;;;;;;;3.80;2.10;;;;;;;22.93;36.44;97181.63;5032141;28;20049;-65
2021/08/17 08:00:43;;;;;;;5.15;2.67;;;;;;;22.95;35.68;97186.78;5036716;28;20098;-65
2021/08/17 08:03:08;;;;;;;3.70;1.90;;;;;;;22.47;37.25;97181.56;5033504;28;20045;-67
2021/08/17 08:05:34;;;;;;;5.45;2.58;;;;;;;20.99;42.53;97182.88;5033124;28;20045;-64
2021/08/17 08:07:59;;;;;;;5.28;2.60;;;;;;;22.55;39.88;97182.16;5039924;28;20037;-66
2021/08/17 08:10:24;;;;;;;3.97;1.92;;;;;;;25.05;36.00;97172.72;5031253;28;20274;-66
2021/08/17 08:12:50;;;;;;;4.82;2.30;;;;;;;22.35;36.96;97173.84;5029002;28;20048;-65
2021/08/17 08:15:16;;;;;;;5.35;2.72;;;;;;;20.72;40.58;97164.22;5030292;28;20506;-65
2021/08/17 08:17:41;;;;;;;5.40;2.63;;;;;;;18.38;45.54;97179.16;5036134;28;20127;-67
2021/08/17 08:20:08;;;;;;;6.07;2.35;;;;;;;18.09;45.00;97180.13;5034327;28;20398;-66
2021/08/17 08:22:33;;;;;;;6.05;2.58;;;;;;;20.10;42.22;97179.47;5038677;28;20048;-67
2021/08/17 08:24:59;;;;;;;4.03;2.05;;;;;;;21.89;40.21;97179.19;5036359;28;20037;-65
2021/08/17 08:27:24;;;;;;;5.57;2.20;;;;;;;21.79;38.16;97179.41;5033072;28;20168;-66
2021/08/17 08:29:50;;;;;;;4.57;2.17;;;;;;;22.68;38.29;97177.44;5035938;28;20462;-65
2021/08/17 08:32:15;;;;;;;6.95;2.85;;;;;;;20.47;41.81;97183.28;5026636;28;20052;-65
2021/08/17 08:34:40;;;;;;;5.60;2.92;;;;;;;19.87;43.96;97180.94;5038895;28;20076;-65
2021/08/17 08:37:06;;;;;;;6.03;2.38;;;;;;;18.26;45.19;97183.22;5031159;28;20740;-65
2021/08/17 08:39:33;;;;;;;4.75;2.72;;;;;;;17.52;49.38;97175.63;5038507;28;20053;-66
2021/08/17 08:41:59;;;;;;;6.63;2.67;;;;;;;19.72;47.55;97171.97;5034943;28;20056;-66
2021/08/17 08:44:24;;;;;;;6.18;2.92;;;;;;;21.73;41.57;97165.19;5024676;28;20083;-66
2021/08/17 08:46:51;;;;;;;7.47;2.97;;;;;;;22.98;39.66;97167.16;5039159;28;20037;-66
2021/08/17 08:49:17;;;;;;;7.18;3.50;;;;;;;24.73;36.51;97162.56;5034311;28;20032;-65
2021/08/17 08:51:44;;;;;;;5.78;2.95;;;;;;;24.08;37.84;97170.16;5038025;28;20080;-65
2021/08/17 08:54:09;;;;;;;6.28;3.20;;;;;;;21.22;39.83;97172.94;5025720;28;20065;-66
2021/08/17 08:56:35;;;;;;;6.95;3.08;;;;;;;21.87;38.34;97164.88;5035421;28;20044;-65
2021/08/17 08:59:01;;;;;;;5.63;3.00;;;;;;;23.34;36.61;97176.63;5036859;28;20041;-65
2021/08/17 09:01:27;;;;;;;5.07;2.92;;;;;;;23.58;35.96;97171.56;5030767;28;20106;-65
2021/08/17 09:03:56;;;;;;;5.22;2.75;;;;;;;24.51;32.79;97171.63;5033332;28;20037;-65
2021/08/17 09:06:23;;;;;;;7.00;2.83;;;;;;;24.44;34.00;97171.88;5027053;28;20467;-67
2021/08/17 09:09:10;;;;;;;6.15;3.10;;;;;;;23.80;35.97;97175.34;5036189;28;20037;-65
2021/08/17 09:11:46;;;;;;;6.85;3.03;;;;;;;24.05;34.46;97171.81;5033193;28;20135;-67
2021/08/17 09:14:25;;;;;;;8.60;3.42;;;;;;;24.00;34.90;97175.19;5028742;28;20086;-66
2021/08/17 09:17:02;;;;;;;5.03;2.63;;;;;;;24.07;35.69;97165.78;5014066;28;20064;-66
2021/08/17 09:19:43;;;;;;;8.60;3.47;;;;;;;22.75;38.13;97164.53;5015497;28;20048;-64
2021/08/17 09:22:20;;;;;;;6.85;3.38;;;;;;;23.11;38.36;97161.66;5026487;28;20048;-66
2021/08/17 09:24:51;;;;;;;5.55;2.72;;;;;;;22.64;38.79;97171.16;5033993;28;20056;-65
2021/08/17 09:27:20;;;;;;;6.78;3.38;;;;;;;21.83;41.10;97158.63;5029810;28;20053;-65
2021/08/17 09:29:53;;;;;;;6.75;3.53;;;;;;;22.65;39.70;97166.38;5037191;28;20049;-64
2021/08/17 09:32:22;;;;;;;6.57;2.53;;;;;;;22.39;40.10;97155.00;5031613;28;20124;-64
2021/08/17 09:34:50;;;;;;;6.35;2.83;;;;;;;22.21;40.67;97163.00;5033153;28;20481;-62
2021/08/17 09:37:17;;;;;;;6.70;3.25;;;;;;;21.46;42.21;97160.53;5030730;28;20056;-65
2021/08/17 09:39:51;;;;;;;5.70;2.95;;;;;;;20.53;44.58;97157.34;5035745;28;20540;-66
2021/08/17 09:42:25;;;;;;;7.68;2.72;;;;;;;22.04;41.53;97165.75;5029909;28;20140;-66
2021/08/17 09:45:06;;;;;;;6.10;3.17;;;;;;;22.34;39.86;97161.09;5036528;28;20070;-64
2021/08/17 09:47:35;;;;;;;6.00;3.20;;;;;;;22.52;40.15;97157.91;5035213;28;20061;-65
2021/08/17 09:50:17;;;;;;;5.78;3.00;;;;;;;23.11;39.34;97158.09;5038713;28;20454;-63
2021/08/17 09:52:42;;;;;;;6.05;2.63;;;;;;;23.03;38.02;97149.06;5038117;28;20091;-64
2021/08/17 09:55:16;;;;;;;7.30;3.08;;;;;;;23.02;37.90;97150.28;5035315;28;20041;-63
2021/08/17 09:57:42;;;;;;;5.65;2.95;;;;;;;22.73;38.55;97147.44;5039397;28;20068;-63
2021/08/17 10:00:14;;;;;;;7.72;2.97;;;;;;;23.09;38.28;97147.34;5034457;28;20135;-66
2021/08/17 10:02:44;;;;;;;5.45;2.85;;;;;;;22.29;39.57;97144.88;5035286;28;20788;-67
2021/08/17 10:05:12;;;;;;;5.18;3.05;;;;;;;22.37;40.17;97131.56;5032827;28;20065;-64
2021/08/17 10:07:38;;;;;;;6.45;3.38;;;;;;;22.88;39.68;97129.09;5034806;28;20071;-66
2021/08/17 10:10:05;;;;;;;7.35;3.42;;;;;;;24.92;35.20;97121.50;5033439;28;20055;-64
2021/08/17 10:12:31;;;;;;;6.63;3.40;;;;;;;24.54;35.04;97119.56;5039177;28;20045;-65
2021/08/17 10:14:57;;;;;;;5.85;3.08;;;;;;;24.32;36.12;97106.25;5040089;28;20148;-68
2021/08/17 10:17:22;;;;;;;6.50;3.42;;;;;;;24.56;35.71;97117.09;5016509;28;20940;-67
2021/08/17 10:19:49;;;;;;;7.85;3.50;;;;;;;23.39;37.91;97118.19;5035959;28;20045;-65
2021/08/17 10:22:14;;;;;;;6.00;3.20;;;;;;;24.08;36.94;97105.03;5032864;28;20508;-63
2021/08/17 10:24:41;;;;;;;7.95;3.55;;;;;;;22.85;39.08;97121.59;5038612;28;20915;-67
2021/08/17 10:27:29;;;;;;;6.72;3.35;;;;;;;24.11;37.32;97113.31;5034244;28;20047;-67
2021/08/17 10:30:17;;;;;;;5.28;2.95;;;;;;;24.24;35.57;97110.50;5039053;28;20045;-69
2021/08/17 10:32:48;;;;;;;6.75;3.90;;;;;;;23.68;37.52;97106.19;5037791;28;20441;-66
2021/08/17 10:35:49;;;;;;;6.22;3.50;;;;;;;23.50;38.40;97094.72;5035693;28;20045;-66
2021/08/17 10:38:17;;;;;;;6.78;3.58;;;;;;;23.91;37.66;97102.31;5030033;28;20056;-64
2021/08/17 10:40:49;;;;;;;7.72;3.92;;;;;;;22.91;38.73;97105.88;5037518;28;20036;-65
2021/08/17 10:43:35;;;;;;;5.32;3.33;;;;;;;23.12;39.04;97100.97;5030827;28;20040;-65
2021/08/17 10:46:04;;;;;;;8.38;4.55;;;;;;;22.24;38.67;97109.13;5024579;28;20119;-65
2021/08/17 10:48:54;;;;;;;7.40;3.92;;;;;;;22.67;39.35;97117.25;4997833;28;20382;-66
2021/08/17 10:51:19;;;;;;;9.27;4.72;;;;;;;22.76;39.19;97118.63;5034376;28;20044;-64
2021/08/17 10:53:45;;;;;;;7.60;3.90;;;;;;;23.05;40.03;97119.50;5033596;28;20045;-66
2021/08/17 10:56:11;;;;;;;8.80;5.28;;;;;;;22.80;39.13;97122.13;5031916;28;20691;-65
2021/08/17 10:58:41;;;;;;;7.40;3.80;;;;;;;22.00;41.22;97123.19;5031438;28;20087;-64
2021/08/17 11:01:06;;;;;;;6.78;3.75;;;;;;;21.95;43.14;97115.34;5007647;28;20405;-65
2021/08/17 11:03:39;;;;;;;6.97;3.83;;;;;;;22.93;39.84;97113.81;5035342;28;20036;-65
2021/08/17 11:06:05;;;;;;;6.40;3.70;;;;;;;22.67;39.66;97108.88;5034965;28;20072;-64
2021/08/17 11:08:31;;;;;;;8.07;4.25;;;;;;;22.78;39.92;97108.63;5038620;28;20069;-65
2021/08/17 11:10:57;;;;;;;7.93;4.15;;;;;;;22.18;40.78;97096.91;5037599;28;20033;-64
2021/08/17 11:13:25;;;;;;;8.77;4.25;;;;;;;21.48;43.15;97091.25;5021578;28;20052;-66
2021/08/17 11:16:11;;;;;;;9.43;4.10;;;;;;;22.24;42.80;97086.81;5040886;28;20045;-66
2021/08/17 11:18:54;;;;;;;9.85;4.78;;;;;;;23.06;40.54;97081.94;5035279;28;20410;-66
2021/08/17 11:21:38;;;;;;;8.48;4.38;;;;;;;23.15;41.10;97084.09;5031116;28;20195;-65
2021/08/17 11:24:33;;;;;;;11.38;5.13;;;;;;;23.62;39.53;97085.56;5035360;28;20037;-64